sensor_id;sensor_type;location;lat;lon;timestamp;P1;durP1;ratioP1;P2;durP2;ratioP2
68938;SDS011;59064;45.294;11.816;2022-12-18T00:01:22;10.50;;;6.40;;
68938;SDS011;59064;45.294;11.816;2022-12-18T00:03:50;10.30;;;6.30;;
68938;SDS011;59064;45.294;11.816;2022-12-18T00:06:18;8.90;;;6.10;;
68938;SDS011;59064;45.294;11.816;2022-12-18T00:08:45;11.30;;;6.40;;
68938;SDS011;59064;45.294;11.816;2022-12-18T00:11:15;13.00;;;6.80;;
68938;SDS011;59064;45.294;11.816;2022-12-18T00:13:43;8.40;;;5.20;;
68938;SDS011;59064;45.294;11.816;2022-12-18T00:16:11;8.00;;;5.20;;
68938;SDS011;59064;45.294;11.816;2022-12-18T00:18:38;7.80;;;5.50;;
68938;SDS011;59064;45.294;11.816;2022-12-18T00:21:05;10.00;;;5.70;;
68938;SDS011;59064;45.294;11.816;2022-12-18T00:23:34;9.40;;;5.90;;
68938;SDS011;59064;45.294;11.816;2022-12-18T00:26:05;10.40;;;5.80;;
68938;SDS011;59064;45.294;11.816;2022-12-18T00:28:32;10.70;;;6.80;;
68938;SDS011;59064;45.294;11.816;2022-12-18T00:31:02;10.20;;;6.10;;
68938;SDS011;59064;45.294;11.816;2022-12-18T00:33:32;9.20;;;6.00;;
68938;SDS011;59064;45.294;11.816;2022-12-18T00:36:06;11.70;;;7.80;;
68938;SDS011;59064;45.294;11.816;2022-12-18T00:38:34;9.50;;;5.80;;
68938;SDS011;59064;45.294;11.816;2022-12-18T00:41:02;11.00;;;6.70;;
68938;SDS011;59064;45.294;11.816;2022-12-18T00:43:29;10.70;;;6.90;;
68938;SDS011;59064;45.294;11.816;2022-12-18T00:45:55;9.30;;;6.00;;
68938;SDS011;59064;45.294;11.816;2022-12-18T00:48:21;10.90;;;7.00;;
68938;SDS011;59064;45.294;11.816;2022-12-18T00:50:48;9.90;;;6.30;;
68938;SDS011;59064;45.294;11.816;2022-12-18T00:53:16;9.60;;;6.20;;
68938;SDS011;59064;45.294;11.816;2022-12-18T00:55:42;9.30;;;6.00;;
68938;SDS011;59064;45.294;11.816;2022-12-18T00:58:08;11.80;;;7.50;;
68938;SDS011;59064;45.294;11.816;2022-12-18T01:00:35;9.80;;;6.30;;
68938;SDS011;59064;45.294;11.816;2022-12-18T01:03:02;9.70;;;6.20;;
68938;SDS011;59064;45.294;11.816;2022-12-18T01:05:28;10.60;;;6.60;;
68938;SDS011;59064;45.294;11.816;2022-12-18T01:07:55;11.30;;;7.20;;
68938;SDS011;59064;45.294;11.816;2022-12-18T01:10:23;8.60;;;5.50;;
68938;SDS011;59064;45.294;11.816;2022-12-18T01:12:50;10.80;;;6.00;;
68938;SDS011;59064;45.294;11.816;2022-12-18T01:15:16;9.70;;;6.20;;
68938;SDS011;59064;45.294;11.816;2022-12-18T01:17:43;10.10;;;6.50;;
68938;SDS011;59064;45.294;11.816;2022-12-18T01:20:10;10.80;;;6.40;;
68938;SDS011;59064;45.294;11.816;2022-12-18T01:22:37;9.90;;;6.40;;
68938;SDS011;59064;45.294;11.816;2022-12-18T01:25:04;10.40;;;6.70;;
68938;SDS011;59064;45.294;11.816;2022-12-18T01:27:33;10.30;;;6.10;;
68938;SDS011;59064;45.294;11.816;2022-12-18T01:30:00;12.20;;;6.50;;
68938;SDS011;59064;45.294;11.816;2022-12-18T01:32:26;10.50;;;6.80;;
68938;SDS011;59064;45.294;11.816;2022-12-18T01:34:54;9.80;;;6.20;;
68938;SDS011;59064;45.294;11.816;2022-12-18T01:37:21;9.70;;;6.10;;
68938;SDS011;59064;45.294;11.816;2022-12-18T01:39:47;9.70;;;5.90;;
68938;SDS011;59064;45.294;11.816;2022-12-18T01:42:15;10.70;;;5.70;;
68938;SDS011;59064;45.294;11.816;2022-12-18T01:49:59;11.80;;;7.00;;
68938;SDS011;59064;45.294;11.816;2022-12-18T01:52:47;9.60;;;6.20;;
68938;SDS011;59064;45.294;11.816;2022-12-18T01:55:16;10.40;;;6.30;;
68938;SDS011;59064;45.294;11.816;2022-12-18T01:57:44;11.10;;;6.60;;
68938;SDS011;59064;45.294;11.816;2022-12-18T02:00:13;10.10;;;5.70;;
68938;SDS011;59064;45.294;11.816;2022-12-18T02:02:41;9.60;;;5.90;;
68938;SDS011;59064;45.294;11.816;2022-12-18T02:05:09;8.60;;;4.90;;
68938;SDS011;59064;45.294;11.816;2022-12-18T02:15:40;9.00;;;6.20;;
68938;SDS011;59064;45.294;11.816;2022-12-18T02:18:20;10.50;;;6.40;;
68938;SDS011;59064;45.294;11.816;2022-12-18T02:23:48;10.90;;;6.50;;
68938;SDS011;59064;45.294;11.816;2022-12-18T02:28:53;10.00;;;6.10;;
68938;SDS011;59064;45.294;11.816;2022-12-18T02:31:25;10.30;;;6.20;;
68938;SDS011;59064;45.294;11.816;2022-12-18T02:33:56;8.40;;;5.50;;
68938;SDS011;59064;45.294;11.816;2022-12-18T02:36:26;10.10;;;6.20;;
68938;SDS011;59064;45.294;11.816;2022-12-18T02:38:54;10.60;;;5.90;;
68938;SDS011;59064;45.294;11.816;2022-12-18T02:41:22;9.70;;;6.10;;
68938;SDS011;59064;45.294;11.816;2022-12-18T02:43:50;10.60;;;6.50;;
68938;SDS011;59064;45.294;11.816;2022-12-18T02:49:06;10.60;;;6.20;;
68938;SDS011;59064;45.294;11.816;2022-12-18T02:54:46;9.20;;;6.10;;
68938;SDS011;59064;45.294;11.816;2022-12-18T02:57:38;9.50;;;5.20;;
68938;SDS011;59064;45.294;11.816;2022-12-18T03:00:12;9.80;;;6.30;;
68938;SDS011;59064;45.294;11.816;2022-12-18T03:02:45;10.40;;;6.10;;
68938;SDS011;59064;45.294;11.816;2022-12-18T03:05:17;9.50;;;5.40;;
68938;SDS011;59064;45.294;11.816;2022-12-18T03:07:58;8.50;;;5.90;;
68938;SDS011;59064;45.294;11.816;2022-12-18T03:10:29;8.10;;;4.30;;
68938;SDS011;59064;45.294;11.816;2022-12-18T03:13:04;7.40;;;3.90;;
68938;SDS011;59064;45.294;11.816;2022-12-18T03:15:43;8.80;;;4.90;;
68938;SDS011;59064;45.294;11.816;2022-12-18T03:18:16;10.20;;;6.20;;
68938;SDS011;59064;45.294;11.816;2022-12-18T03:20:45;8.70;;;5.20;;
68938;SDS011;59064;45.294;11.816;2022-12-18T03:23:19;11.10;;;6.70;;
68938;SDS011;59064;45.294;11.816;2022-12-18T03:25:51;10.20;;;6.00;;
68938;SDS011;59064;45.294;11.816;2022-12-18T03:28:20;9.50;;;6.20;;
68938;SDS011;59064;45.294;11.816;2022-12-18T03:30:49;10.40;;;6.10;;
68938;SDS011;59064;45.294;11.816;2022-12-18T03:33:31;9.70;;;5.50;;
68938;SDS011;59064;45.294;11.816;2022-12-18T03:36:05;10.50;;;5.40;;
68938;SDS011;59064;45.294;11.816;2022-12-18T03:38:31;11.10;;;5.30;;
68938;SDS011;59064;45.294;11.816;2022-12-18T03:41:03;9.50;;;6.40;;
68938;SDS011;59064;45.294;11.816;2022-12-18T03:43:51;9.80;;;5.80;;
68938;SDS011;59064;45.294;11.816;2022-12-18T03:49:38;9.70;;;6.00;;
68938;SDS011;59064;45.294;11.816;2022-12-18T03:52:26;9.80;;;4.70;;
68938;SDS011;59064;45.294;11.816;2022-12-18T03:54:58;10.20;;;6.10;;
68938;SDS011;59064;45.294;11.816;2022-12-18T03:57:27;9.40;;;6.00;;
68938;SDS011;59064;45.294;11.816;2022-12-18T03:59:58;10.80;;;6.40;;
68938;SDS011;59064;45.294;11.816;2022-12-18T04:02:29;9.40;;;5.80;;
68938;SDS011;59064;45.294;11.816;2022-12-18T04:04:58;11.00;;;6.40;;
68938;SDS011;59064;45.294;11.816;2022-12-18T04:07:27;12.40;;;6.20;;
68938;SDS011;59064;45.294;11.816;2022-12-18T04:09:55;8.80;;;5.30;;
68938;SDS011;59064;45.294;11.816;2022-12-18T04:12:25;10.70;;;6.90;;
68938;SDS011;59064;45.294;11.816;2022-12-18T04:14:51;10.70;;;6.40;;
68938;SDS011;59064;45.294;11.816;2022-12-18T04:17:18;10.10;;;6.30;;
68938;SDS011;59064;45.294;11.816;2022-12-18T04:19:44;11.40;;;6.20;;
68938;SDS011;59064;45.294;11.816;2022-12-18T04:22:10;11.00;;;7.10;;
68938;SDS011;59064;45.294;11.816;2022-12-18T04:24:37;10.90;;;6.90;;
68938;SDS011;59064;45.294;11.816;2022-12-18T04:27:03;9.60;;;5.90;;
68938;SDS011;59064;45.294;11.816;2022-12-18T04:29:32;10.90;;;6.30;;
68938;SDS011;59064;45.294;11.816;2022-12-18T04:31:59;10.30;;;6.10;;
68938;SDS011;59064;45.294;11.816;2022-12-18T04:34:29;10.70;;;6.30;;
68938;SDS011;59064;45.294;11.816;2022-12-18T04:36:56;9.50;;;5.80;;
68938;SDS011;59064;45.294;11.816;2022-12-18T04:39:24;10.00;;;6.00;;
68938;SDS011;59064;45.294;11.816;2022-12-18T04:41:51;9.60;;;6.00;;
68938;SDS011;59064;45.294;11.816;2022-12-18T04:44:17;10.70;;;5.60;;
68938;SDS011;59064;45.294;11.816;2022-12-18T04:46:43;9.70;;;5.50;;
68938;SDS011;59064;45.294;11.816;2022-12-18T04:49:12;10.00;;;5.30;;
68938;SDS011;59064;45.294;11.816;2022-12-18T04:51:38;9.40;;;5.60;;
68938;SDS011;59064;45.294;11.816;2022-12-18T04:54:05;10.60;;;6.30;;
68938;SDS011;59064;45.294;11.816;2022-12-18T04:56:32;9.60;;;5.90;;
68938;SDS011;59064;45.294;11.816;2022-12-18T04:58:59;10.10;;;5.70;;
68938;SDS011;59064;45.294;11.816;2022-12-18T05:01:26;8.60;;;5.60;;
68938;SDS011;59064;45.294;11.816;2022-12-18T05:03:52;10.00;;;5.80;;
68938;SDS011;59064;45.294;11.816;2022-12-18T05:06:19;10.50;;;6.10;;
68938;SDS011;59064;45.294;11.816;2022-12-18T05:08:45;12.20;;;6.70;;
68938;SDS011;59064;45.294;11.816;2022-12-18T05:11:13;12.20;;;6.90;;
68938;SDS011;59064;45.294;11.816;2022-12-18T05:13:41;11.60;;;6.10;;
68938;SDS011;59064;45.294;11.816;2022-12-18T05:16:07;11.70;;;6.90;;
68938;SDS011;59064;45.294;11.816;2022-12-18T05:18:33;11.60;;;7.40;;
68938;SDS011;59064;45.294;11.816;2022-12-18T05:21:00;18.40;;;9.90;;
68938;SDS011;59064;45.294;11.816;2022-12-18T05:23:26;13.60;;;7.50;;
68938;SDS011;59064;45.294;11.816;2022-12-18T05:25:53;14.80;;;6.90;;
68938;SDS011;59064;45.294;11.816;2022-12-18T05:28:22;11.10;;;5.90;;
68938;SDS011;59064;45.294;11.816;2022-12-18T05:30:49;13.70;;;7.60;;
68938;SDS011;59064;45.294;11.816;2022-12-18T05:33:19;10.70;;;5.70;;
68938;SDS011;59064;45.294;11.816;2022-12-18T05:35:53;11.50;;;6.90;;
68938;SDS011;59064;45.294;11.816;2022-12-18T05:38:21;12.20;;;6.30;;
68938;SDS011;59064;45.294;11.816;2022-12-18T05:40:48;8.90;;;5.20;;
68938;SDS011;59064;45.294;11.816;2022-12-18T05:43:15;9.70;;;5.50;;
68938;SDS011;59064;45.294;11.816;2022-12-18T05:45:42;9.10;;;5.60;;
68938;SDS011;59064;45.294;11.816;2022-12-18T05:48:09;9.10;;;6.10;;
68938;SDS011;59064;45.294;11.816;2022-12-18T05:50:35;7.00;;;4.50;;
68938;SDS011;59064;45.294;11.816;2022-12-18T05:53:06;10.70;;;6.30;;
68938;SDS011;59064;45.294;11.816;2022-12-18T05:55:35;10.00;;;5.80;;
68938;SDS011;59064;45.294;11.816;2022-12-18T05:58:03;10.30;;;5.50;;
68938;SDS011;59064;45.294;11.816;2022-12-18T06:00:30;11.60;;;6.80;;
68938;SDS011;59064;45.294;11.816;2022-12-18T06:02:58;11.10;;;6.30;;
68938;SDS011;59064;45.294;11.816;2022-12-18T06:11:22;10.70;;;6.30;;
68938;SDS011;59064;45.294;11.816;2022-12-18T06:13:50;13.60;;;6.70;;
68938;SDS011;59064;45.294;11.816;2022-12-18T06:16:16;11.50;;;6.30;;
68938;SDS011;59064;45.294;11.816;2022-12-18T06:18:42;11.80;;;7.00;;
68938;SDS011;59064;45.294;11.816;2022-12-18T06:21:07;9.50;;;6.00;;
68938;SDS011;59064;45.294;11.816;2022-12-18T06:23:33;10.00;;;5.80;;
68938;SDS011;59064;45.294;11.816;2022-12-18T06:25:58;10.40;;;6.30;;
68938;SDS011;59064;45.294;11.816;2022-12-18T06:28:28;11.20;;;5.80;;
68938;SDS011;59064;45.294;11.816;2022-12-18T06:30:53;12.30;;;6.10;;
68938;SDS011;59064;45.294;11.816;2022-12-18T06:33:19;12.70;;;7.90;;
68938;SDS011;59064;45.294;11.816;2022-12-18T06:35:44;11.20;;;6.80;;
68938;SDS011;59064;45.294;11.816;2022-12-18T06:38:10;9.80;;;5.40;;
68938;SDS011;59064;45.294;11.816;2022-12-18T06:40:36;10.40;;;6.50;;
68938;SDS011;59064;45.294;11.816;2022-12-18T06:43:04;10.40;;;5.60;;
68938;SDS011;59064;45.294;11.816;2022-12-18T06:45:30;11.70;;;6.60;;
68938;SDS011;59064;45.294;11.816;2022-12-18T06:47:55;10.90;;;6.40;;
68938;SDS011;59064;45.294;11.816;2022-12-18T06:50:21;12.40;;;6.90;;
68938;SDS011;59064;45.294;11.816;2022-12-18T06:52:46;12.30;;;7.30;;
68938;SDS011;59064;45.294;11.816;2022-12-18T06:55:12;12.00;;;7.20;;
68938;SDS011;59064;45.294;11.816;2022-12-18T06:57:38;15.00;;;7.80;;
68938;SDS011;59064;45.294;11.816;2022-12-18T07:00:05;11.40;;;7.30;;
68938;SDS011;59064;45.294;11.816;2022-12-18T07:02:32;12.00;;;7.50;;
68938;SDS011;59064;45.294;11.816;2022-12-18T07:04:58;12.40;;;7.50;;
68938;SDS011;59064;45.294;11.816;2022-12-18T07:07:23;11.40;;;6.90;;
68938;SDS011;59064;45.294;11.816;2022-12-18T07:09:49;14.10;;;7.50;;
68938;SDS011;59064;45.294;11.816;2022-12-18T07:12:16;11.80;;;7.00;;
68938;SDS011;59064;45.294;11.816;2022-12-18T07:14:42;13.00;;;7.10;;
68938;SDS011;59064;45.294;11.816;2022-12-18T07:17:07;14.00;;;7.40;;
68938;SDS011;59064;45.294;11.816;2022-12-18T07:19:33;11.00;;;6.80;;
68938;SDS011;59064;45.294;11.816;2022-12-18T07:21:59;11.40;;;6.90;;
68938;SDS011;59064;45.294;11.816;2022-12-18T07:24:25;12.60;;;6.60;;
68938;SDS011;59064;45.294;11.816;2022-12-18T07:26:51;13.30;;;8.50;;
68938;SDS011;59064;45.294;11.816;2022-12-18T07:29:16;10.90;;;6.90;;
68938;SDS011;59064;45.294;11.816;2022-12-18T07:31:42;11.40;;;6.80;;
68938;SDS011;59064;45.294;11.816;2022-12-18T07:34:13;13.40;;;7.50;;
68938;SDS011;59064;45.294;11.816;2022-12-18T07:36:40;9.00;;;5.50;;
68938;SDS011;59064;45.294;11.816;2022-12-18T07:39:06;11.70;;;7.30;;
68938;SDS011;59064;45.294;11.816;2022-12-18T07:41:31;12.70;;;7.20;;
68938;SDS011;59064;45.294;11.816;2022-12-18T07:43:57;13.40;;;6.40;;
68938;SDS011;59064;45.294;11.816;2022-12-18T07:46:22;11.40;;;7.20;;
68938;SDS011;59064;45.294;11.816;2022-12-18T07:48:48;12.00;;;6.70;;
68938;SDS011;59064;45.294;11.816;2022-12-18T07:51:13;10.00;;;5.90;;
68938;SDS011;59064;45.294;11.816;2022-12-18T07:53:39;13.70;;;8.90;;
68938;SDS011;59064;45.294;11.816;2022-12-18T07:56:07;12.20;;;6.60;;
68938;SDS011;59064;45.294;11.816;2022-12-18T07:58:35;12.40;;;7.40;;
68938;SDS011;59064;45.294;11.816;2022-12-18T08:01:08;13.60;;;7.40;;
68938;SDS011;59064;45.294;11.816;2022-12-18T08:03:35;12.70;;;7.40;;
68938;SDS011;59064;45.294;11.816;2022-12-18T08:06:03;11.70;;;7.20;;
68938;SDS011;59064;45.294;11.816;2022-12-18T08:08:31;13.20;;;7.90;;
68938;SDS011;59064;45.294;11.816;2022-12-18T08:10:58;13.20;;;7.30;;
68938;SDS011;59064;45.294;11.816;2022-12-18T08:13:24;11.90;;;7.70;;
68938;SDS011;59064;45.294;11.816;2022-12-18T08:15:58;10.80;;;6.80;;
68938;SDS011;59064;45.294;11.816;2022-12-18T08:18:27;12.80;;;8.00;;
68938;SDS011;59064;45.294;11.816;2022-12-18T08:20:53;9.70;;;5.10;;
68938;SDS011;59064;45.294;11.816;2022-12-18T08:23:20;11.50;;;6.80;;
68938;SDS011;59064;45.294;11.816;2022-12-18T08:25:45;10.50;;;6.40;;
68938;SDS011;59064;45.294;11.816;2022-12-18T08:28:11;11.30;;;7.50;;
68938;SDS011;59064;45.294;11.816;2022-12-18T08:30:37;12.90;;;8.10;;
68938;SDS011;59064;45.294;11.816;2022-12-18T08:33:02;10.50;;;7.00;;
68938;SDS011;59064;45.294;11.816;2022-12-18T08:35:28;11.60;;;7.50;;
68938;SDS011;59064;45.294;11.816;2022-12-18T08:37:54;12.30;;;7.00;;
68938;SDS011;59064;45.294;11.816;2022-12-18T08:40:19;11.50;;;7.30;;
68938;SDS011;59064;45.294;11.816;2022-12-18T08:42:45;12.10;;;6.60;;
68938;SDS011;59064;45.294;11.816;2022-12-18T08:45:29;11.00;;;7.10;;
68938;SDS011;59064;45.294;11.816;2022-12-18T08:47:58;14.40;;;8.40;;
68938;SDS011;59064;45.294;11.816;2022-12-18T08:50:24;11.30;;;7.40;;
68938;SDS011;59064;45.294;11.816;2022-12-18T08:52:49;10.90;;;6.90;;
68938;SDS011;59064;45.294;11.816;2022-12-18T08:55:15;11.00;;;7.20;;
68938;SDS011;59064;45.294;11.816;2022-12-18T08:57:41;13.40;;;8.20;;
68938;SDS011;59064;45.294;11.816;2022-12-18T09:00:06;12.40;;;7.40;;
68938;SDS011;59064;45.294;11.816;2022-12-18T09:02:33;14.10;;;9.00;;
68938;SDS011;59064;45.294;11.816;2022-12-18T09:04:58;13.40;;;7.80;;
68938;SDS011;59064;45.294;11.816;2022-12-18T09:07:24;12.00;;;7.30;;
68938;SDS011;59064;45.294;11.816;2022-12-18T09:09:50;13.50;;;8.30;;
68938;SDS011;59064;45.294;11.816;2022-12-18T09:12:15;11.80;;;7.40;;
68938;SDS011;59064;45.294;11.816;2022-12-18T09:14:41;12.60;;;7.50;;
68938;SDS011;59064;45.294;11.816;2022-12-18T09:17:06;11.90;;;7.40;;
68938;SDS011;59064;45.294;11.816;2022-12-18T09:19:32;10.50;;;6.50;;
68938;SDS011;59064;45.294;11.816;2022-12-18T09:21:59;11.50;;;7.50;;
68938;SDS011;59064;45.294;11.816;2022-12-18T09:24:25;12.50;;;7.60;;
68938;SDS011;59064;45.294;11.816;2022-12-18T09:26:54;12.20;;;8.10;;
68938;SDS011;59064;45.294;11.816;2022-12-18T09:29:22;12.00;;;6.30;;
68938;SDS011;59064;45.294;11.816;2022-12-18T09:31:48;11.70;;;7.30;;
68938;SDS011;59064;45.294;11.816;2022-12-18T09:34:14;10.50;;;6.10;;
68938;SDS011;59064;45.294;11.816;2022-12-18T09:36:41;10.80;;;6.70;;
68938;SDS011;59064;45.294;11.816;2022-12-18T09:39:07;14.20;;;7.60;;
68938;SDS011;59064;45.294;11.816;2022-12-18T09:44:10;14.00;;;7.00;;
68938;SDS011;59064;45.294;11.816;2022-12-18T09:46:40;16.00;;;9.50;;
68938;SDS011;59064;45.294;11.816;2022-12-18T09:49:14;12.00;;;7.20;;
68938;SDS011;59064;45.294;11.816;2022-12-18T09:54:38;15.30;;;8.80;;
68938;SDS011;59064;45.294;11.816;2022-12-18T09:57:28;12.80;;;7.60;;
68938;SDS011;59064;45.294;11.816;2022-12-18T10:00:30;13.80;;;8.50;;
68938;SDS011;59064;45.294;11.816;2022-12-18T10:02:59;11.30;;;6.50;;
68938;SDS011;59064;45.294;11.816;2022-12-18T10:16:16;13.70;;;7.80;;
68938;SDS011;59064;45.294;11.816;2022-12-18T10:24:14;12.40;;;8.50;;
68938;SDS011;59064;45.294;11.816;2022-12-18T10:26:55;15.70;;;8.10;;
68938;SDS011;59064;45.294;11.816;2022-12-18T10:29:34;14.00;;;8.90;;
68938;SDS011;59064;45.294;11.816;2022-12-18T10:32:00;13.00;;;8.50;;
68938;SDS011;59064;45.294;11.816;2022-12-18T10:34:26;14.40;;;8.50;;
68938;SDS011;59064;45.294;11.816;2022-12-18T10:36:51;13.00;;;7.60;;
68938;SDS011;59064;45.294;11.816;2022-12-18T10:39:21;14.40;;;8.30;;
68938;SDS011;59064;45.294;11.816;2022-12-18T10:41:48;14.20;;;8.70;;
68938;SDS011;59064;45.294;11.816;2022-12-18T10:44:19;12.30;;;8.10;;
68938;SDS011;59064;45.294;11.816;2022-12-18T10:46:50;11.00;;;6.80;;
68938;SDS011;59064;45.294;11.816;2022-12-18T10:49:50;12.70;;;7.40;;
68938;SDS011;59064;45.294;11.816;2022-12-18T10:54:51;13.20;;;8.90;;
68938;SDS011;59064;45.294;11.816;2022-12-18T11:02:55;14.20;;;9.30;;
68938;SDS011;59064;45.294;11.816;2022-12-18T11:05:34;12.60;;;8.10;;
68938;SDS011;59064;45.294;11.816;2022-12-18T11:08:01;12.70;;;8.60;;
68938;SDS011;59064;45.294;11.816;2022-12-18T11:15:47;12.40;;;8.00;;
68938;SDS011;59064;45.294;11.816;2022-12-18T11:18:17;13.00;;;9.20;;
68938;SDS011;59064;45.294;11.816;2022-12-18T11:20:58;12.90;;;8.40;;
68938;SDS011;59064;45.294;11.816;2022-12-18T11:23:25;12.10;;;8.30;;
68938;SDS011;59064;45.294;11.816;2022-12-18T11:25:52;12.40;;;7.80;;
68938;SDS011;59064;45.294;11.816;2022-12-18T11:33:35;13.90;;;9.90;;
68938;SDS011;59064;45.294;11.816;2022-12-18T11:36:05;13.30;;;9.00;;
68938;SDS011;59064;45.294;11.816;2022-12-18T11:38:38;13.40;;;8.60;;
68938;SDS011;59064;45.294;11.816;2022-12-18T11:41:13;14.10;;;9.60;;
68938;SDS011;59064;45.294;11.816;2022-12-18T11:43:59;12.60;;;9.30;;
68938;SDS011;59064;45.294;11.816;2022-12-18T11:49:03;14.30;;;10.20;;
68938;SDS011;59064;45.294;11.816;2022-12-18T11:54:31;15.20;;;10.50;;
68938;SDS011;59064;45.294;11.816;2022-12-18T12:14:37;14.20;;;9.40;;
68938;SDS011;59064;45.294;11.816;2022-12-18T12:33:29;15.10;;;10.70;;
68938;SDS011;59064;45.294;11.816;2022-12-18T12:38:49;14.00;;;10.40;;
68938;SDS011;59064;45.294;11.816;2022-12-18T12:41:21;12.50;;;8.80;;
68938;SDS011;59064;45.294;11.816;2022-12-18T12:44:09;14.00;;;10.30;;
68938;SDS011;59064;45.294;11.816;2022-12-18T12:46:41;15.50;;;11.10;;
68938;SDS011;59064;45.294;11.816;2022-12-18T12:49:18;16.30;;;12.30;;
68938;SDS011;59064;45.294;11.816;2022-12-18T12:51:49;13.60;;;9.70;;
68938;SDS011;59064;45.294;11.816;2022-12-18T12:54:24;12.80;;;9.40;;
68938;SDS011;59064;45.294;11.816;2022-12-18T13:02:50;11.20;;;7.70;;
68938;SDS011;59064;45.294;11.816;2022-12-18T13:08:07;13.60;;;9.70;;
68938;SDS011;59064;45.294;11.816;2022-12-18T13:10:57;11.60;;;8.70;;
68938;SDS011;59064;45.294;11.816;2022-12-18T13:14:04;12.40;;;8.20;;
68938;SDS011;59064;45.294;11.816;2022-12-18T13:16:28;12.10;;;7.30;;
68938;SDS011;59064;45.294;11.816;2022-12-18T13:18:54;12.10;;;8.40;;
68938;SDS011;59064;45.294;11.816;2022-12-18T13:21:30;10.10;;;7.00;;
68938;SDS011;59064;45.294;11.816;2022-12-18T13:24:23;11.70;;;8.60;;
68938;SDS011;59064;45.294;11.816;2022-12-18T13:26:49;14.50;;;10.80;;
68938;SDS011;59064;45.294;11.816;2022-12-18T13:29:39;12.60;;;9.20;;
68938;SDS011;59064;45.294;11.816;2022-12-18T13:32:23;13.30;;;9.10;;
68938;SDS011;59064;45.294;11.816;2022-12-18T13:35:36;12.20;;;9.00;;
68938;SDS011;59064;45.294;11.816;2022-12-18T13:37:51;11.40;;;8.40;;
68938;SDS011;59064;45.294;11.816;2022-12-18T13:51:46;10.50;;;7.40;;
68938;SDS011;59064;45.294;11.816;2022-12-18T13:56:59;12.70;;;9.30;;
68938;SDS011;59064;45.294;11.816;2022-12-18T13:59:26;12.70;;;8.40;;
68938;SDS011;59064;45.294;11.816;2022-12-18T14:02:07;11.70;;;9.00;;
68938;SDS011;59064;45.294;11.816;2022-12-18T14:04:39;13.10;;;9.10;;
68938;SDS011;59064;45.294;11.816;2022-12-18T14:07:21;13.80;;;9.80;;
68938;SDS011;59064;45.294;11.816;2022-12-18T14:09:51;15.00;;;9.70;;
68938;SDS011;59064;45.294;11.816;2022-12-18T14:12:21;13.10;;;9.40;;
68938;SDS011;59064;45.294;11.816;2022-12-18T14:15:32;13.50;;;8.80;;
68938;SDS011;59064;45.294;11.816;2022-12-18T14:18:23;11.90;;;8.20;;
68938;SDS011;59064;45.294;11.816;2022-12-18T14:20:52;16.60;;;9.20;;
68938;SDS011;59064;45.294;11.816;2022-12-18T14:25:52;14.70;;;8.60;;
68938;SDS011;59064;45.294;11.816;2022-12-18T14:28:18;15.00;;;8.90;;
68938;SDS011;59064;45.294;11.816;2022-12-18T14:30:44;13.90;;;9.20;;
68938;SDS011;59064;45.294;11.816;2022-12-18T14:35:40;14.30;;;9.10;;
68938;SDS011;59064;45.294;11.816;2022-12-18T14:40:56;13.80;;;8.60;;
68938;SDS011;59064;45.294;11.816;2022-12-18T14:43:27;13.70;;;8.70;;
68938;SDS011;59064;45.294;11.816;2022-12-18T14:45:54;12.10;;;8.30;;
68938;SDS011;59064;45.294;11.816;2022-12-18T14:50:55;29.00;;;14.40;;
68938;SDS011;59064;45.294;11.816;2022-12-18T14:53:32;18.50;;;10.80;;
68938;SDS011;59064;45.294;11.816;2022-12-18T14:56:02;13.90;;;8.80;;
68938;SDS011;59064;45.294;11.816;2022-12-18T14:58:29;16.60;;;11.20;;
68938;SDS011;59064;45.294;11.816;2022-12-18T15:00:54;16.60;;;11.00;;
68938;SDS011;59064;45.294;11.816;2022-12-18T15:03:20;17.60;;;11.90;;
68938;SDS011;59064;45.294;11.816;2022-12-18T15:05:46;21.00;;;14.00;;
68938;SDS011;59064;45.294;11.816;2022-12-18T15:11:01;14.60;;;9.30;;
68938;SDS011;59064;45.294;11.816;2022-12-18T15:13:27;18.30;;;11.90;;
68938;SDS011;59064;45.294;11.816;2022-12-18T15:15:53;22.30;;;13.40;;
68938;SDS011;59064;45.294;11.816;2022-12-18T15:18:23;23.40;;;14.50;;
68938;SDS011;59064;45.294;11.816;2022-12-18T15:20:58;23.70;;;16.50;;
68938;SDS011;59064;45.294;11.816;2022-12-18T15:23:46;20.40;;;14.20;;
68938;SDS011;59064;45.294;11.816;2022-12-18T15:26:15;20.90;;;12.50;;
68938;SDS011;59064;45.294;11.816;2022-12-18T15:28:46;19.10;;;12.60;;
68938;SDS011;59064;45.294;11.816;2022-12-18T15:31:24;17.60;;;10.20;;
68938;SDS011;59064;45.294;11.816;2022-12-18T15:36:22;16.30;;;10.70;;
68938;SDS011;59064;45.294;11.816;2022-12-18T15:38:49;18.10;;;11.10;;
68938;SDS011;59064;45.294;11.816;2022-12-18T15:41:19;18.10;;;11.70;;
68938;SDS011;59064;45.294;11.816;2022-12-18T15:43:47;33.30;;;20.70;;
68938;SDS011;59064;45.294;11.816;2022-12-18T15:46:15;32.90;;;18.20;;
68938;SDS011;59064;45.294;11.816;2022-12-18T15:48:44;27.20;;;16.30;;
68938;SDS011;59064;45.294;11.816;2022-12-18T15:51:11;25.20;;;14.80;;
68938;SDS011;59064;45.294;11.816;2022-12-18T15:53:41;24.60;;;15.70;;
68938;SDS011;59064;45.294;11.816;2022-12-18T15:56:11;29.10;;;17.00;;
68938;SDS011;59064;45.294;11.816;2022-12-18T15:58:56;23.60;;;14.80;;
68938;SDS011;59064;45.294;11.816;2022-12-18T16:01:26;27.30;;;16.70;;
68938;SDS011;59064;45.294;11.816;2022-12-18T16:03:54;33.10;;;18.90;;
68938;SDS011;59064;45.294;11.816;2022-12-18T16:06:20;30.10;;;18.00;;
68938;SDS011;59064;45.294;11.816;2022-12-18T16:08:48;33.40;;;19.40;;
68938;SDS011;59064;45.294;11.816;2022-12-18T16:11:21;28.10;;;15.80;;
68938;SDS011;59064;45.294;11.816;2022-12-18T16:14:24;26.10;;;16.00;;
68938;SDS011;59064;45.294;11.816;2022-12-18T16:16:56;25.90;;;15.70;;
68938;SDS011;59064;45.294;11.816;2022-12-18T16:19:24;22.50;;;13.30;;
68938;SDS011;59064;45.294;11.816;2022-12-18T16:21:51;21.00;;;12.60;;
68938;SDS011;59064;45.294;11.816;2022-12-18T16:24:21;21.00;;;13.10;;
68938;SDS011;59064;45.294;11.816;2022-12-18T16:26:49;20.10;;;12.00;;
68938;SDS011;59064;45.294;11.816;2022-12-18T16:29:16;18.00;;;11.20;;
68938;SDS011;59064;45.294;11.816;2022-12-18T16:31:43;23.40;;;14.60;;
68938;SDS011;59064;45.294;11.816;2022-12-18T16:34:09;21.60;;;15.10;;
68938;SDS011;59064;45.294;11.816;2022-12-18T16:36:49;24.90;;;16.00;;
68938;SDS011;59064;45.294;11.816;2022-12-18T16:39:15;26.70;;;17.20;;
68938;SDS011;59064;45.294;11.816;2022-12-18T16:41:41;24.80;;;18.00;;
68938;SDS011;59064;45.294;11.816;2022-12-18T16:44:07;23.80;;;15.30;;
68938;SDS011;59064;45.294;11.816;2022-12-18T16:46:32;23.00;;;17.20;;
68938;SDS011;59064;45.294;11.816;2022-12-18T16:48:58;18.80;;;11.00;;
68938;SDS011;59064;45.294;11.816;2022-12-18T16:51:25;25.60;;;12.80;;
68938;SDS011;59064;45.294;11.816;2022-12-18T16:53:52;19.90;;;11.20;;
68938;SDS011;59064;45.294;11.816;2022-12-18T16:56:18;21.30;;;10.70;;
68938;SDS011;59064;45.294;11.816;2022-12-18T16:58:49;26.20;;;13.90;;
68938;SDS011;59064;45.294;11.816;2022-12-18T17:01:17;20.60;;;12.80;;
68938;SDS011;59064;45.294;11.816;2022-12-18T17:03:50;20.50;;;11.60;;
68938;SDS011;59064;45.294;11.816;2022-12-18T17:06:20;18.90;;;10.80;;
68938;SDS011;59064;45.294;11.816;2022-12-18T17:08:47;41.00;;;25.00;;
68938;SDS011;59064;45.294;11.816;2022-12-18T17:11:13;89.50;;;49.40;;